createdAt,value
2023-03-13T00:03:08.236Z,92.88
2023-03-13T00:05:36.342Z,92.23
2023-03-13T00:08:03.931Z,92.64
2023-03-13T00:10:32.689Z,92.99
2023-03-13T00:13:00.154Z,92.73
2023-03-13T00:15:27.563Z,92.63
2023-03-13T00:17:54.983Z,93.15
2023-03-13T00:20:22.426Z,91.70
2023-03-13T00:22:49.878Z,91.74
2023-03-13T00:25:17.436Z,91.33
2023-03-13T00:27:46.193Z,91.47
2023-03-13T00:33:11.928Z,92.32
2023-03-13T00:35:39.460Z,92.84
2023-03-13T00:41:02.798Z,92.32
2023-03-13T00:43:32.141Z,91.21
2023-03-13T00:46:01.115Z,91.44
2023-03-13T00:48:29.038Z,92.00
2023-03-13T00:50:56.546Z,92.00
2023-03-13T00:53:24.253Z,91.92
2023-03-13T00:55:56.241Z,91.10
2023-03-13T00:58:24.653Z,90.92
2023-03-13T01:00:54.054Z,91.34
2023-03-13T01:06:26.833Z,90.71
2023-03-13T01:08:56.224Z,89.99
2023-03-13T01:11:25.485Z,90.49
2023-03-13T01:13:55.128Z,90.80
2023-03-13T01:19:26.268Z,89.99
2023-03-13T01:21:53.698Z,90.09
2023-03-13T01:24:22.043Z,89.74
2023-03-13T01:26:49.568Z,90.18
2023-03-13T01:29:17.112Z,90.61
2023-03-13T01:31:44.579Z,89.69
2023-03-13T01:34:12.188Z,89.59
2023-03-13T01:36:40.994Z,89.72
2023-03-13T01:39:08.414Z,90.22
2023-03-13T01:41:35.946Z,91.82
2023-03-13T01:44:03.472Z,92.55
2023-03-13T01:46:34.124Z,93.06
2023-03-13T01:49:11.207Z,93.89
2023-03-13T01:51:49.442Z,95.51
2023-03-13T01:54:19.951Z,95.74
2023-03-13T01:56:50.831Z,96.66
2023-03-13T01:59:21.930Z,97.50
2023-03-13T02:01:50.489Z,97.25
2023-03-13T02:07:25.465Z,99.44
2023-03-13T02:09:54.606Z,100.00
2023-03-13T02:15:26.038Z,100.00
2023-03-13T02:17:54.518Z,100.00
2023-03-13T02:20:22.743Z,100.00
2023-03-13T02:22:57.067Z,100.00
2023-03-13T02:25:35.246Z,100.00
2023-03-13T02:28:05.928Z,100.00
2023-03-13T02:33:37.120Z,100.00
2023-03-13T02:36:06.262Z,100.00
2023-03-13T02:38:36.151Z,100.00
2023-03-13T02:41:05.829Z,100.00
2023-03-13T02:43:35.021Z,100.00
2023-03-13T02:46:06.287Z,100.00
2023-03-13T02:48:37.069Z,100.00
2023-03-13T02:51:07.159Z,100.00
2023-03-13T02:56:39.722Z,100.00
2023-03-13T02:59:08.995Z,100.00
2023-03-13T03:01:39.916Z,100.00
2023-03-13T03:04:07.543Z,100.00
2023-03-13T03:06:35.003Z,100.00
2023-03-13T03:09:04.795Z,100.00
2023-03-13T03:11:35.598Z,100.00
2023-03-13T03:17:12.946Z,100.00
2023-03-13T03:19:40.599Z,100.00
2023-03-13T03:22:09.921Z,100.00
2023-03-13T03:24:37.423Z,100.00
2023-03-13T03:27:05.842Z,100.00
2023-03-13T03:29:39.463Z,100.00
2023-03-13T03:32:07.616Z,100.00
2023-03-13T03:34:36.373Z,100.00
2023-03-13T03:37:04.040Z,100.00
2023-03-13T03:39:31.467Z,100.00
2023-03-13T03:45:11.268Z,100.00
2023-03-13T03:50:43.313Z,100.00
2023-03-13T03:53:11.451Z,100.00
2023-03-13T03:55:39.046Z,100.00
2023-03-13T03:58:06.822Z,100.00
2023-03-13T04:00:54.322Z,100.00
2023-03-13T04:03:48.214Z,100.00
2023-03-13T04:06:17.245Z,100.00
2023-03-13T04:08:46.417Z,100.00
2023-03-13T04:14:06.284Z,100.00
2023-03-13T04:16:34.124Z,100.00
2023-03-13T04:19:02.157Z,100.00
2023-03-13T04:21:31.243Z,100.00
2023-03-13T04:24:03.450Z,100.00
2023-03-13T04:26:49.782Z,100.00
2023-03-13T04:29:17.290Z,100.00
2023-03-13T04:31:57.972Z,100.00
2023-03-13T04:34:38.373Z,100.00
2023-03-13T04:40:17.471Z,100.00
2023-03-13T04:43:00.237Z,100.00
2023-03-13T04:45:47.422Z,100.00
2023-03-13T04:48:53.959Z,100.00
2023-03-13T04:51:52.711Z,100.00
2023-03-13T04:54:29.808Z,100.00
2023-03-13T04:57:12.435Z,100.00
2023-03-13T05:00:15.616Z,100.00
2023-03-13T05:03:11.574Z,100.00
2023-03-13T05:05:52.233Z,100.00
2023-03-13T05:08:38.495Z,100.00
2023-03-13T05:11:42.698Z,100.00
2023-03-13T05:14:19.958Z,100.00
2023-03-13T05:17:17.561Z,100.00
2023-03-13T05:20:11.129Z,100.00
2023-03-13T05:22:46.698Z,100.00
2023-03-13T05:25:20.027Z,100.00
2023-03-13T05:27:58.535Z,100.00
2023-03-13T05:33:47.969Z,100.00
2023-03-13T05:36:28.124Z,100.00
2023-03-13T05:42:05.142Z,100.00
2023-03-13T05:44:50.314Z,100.00
2023-03-13T05:47:36.275Z,100.00
2023-03-13T05:50:12.790Z,100.00
2023-03-13T05:53:00.503Z,100.00
2023-03-13T05:59:08.954Z,100.00
2023-03-13T06:01:54.827Z,100.00
2023-03-13T06:04:35.553Z,100.00
2023-03-13T06:07:03.086Z,100.00
2023-03-13T06:09:30.679Z,100.00
2023-03-13T06:11:59.124Z,100.00
2023-03-13T06:14:27.108Z,100.00
2023-03-13T06:20:14.688Z,100.00
2023-03-13T06:22:42.332Z,100.00
2023-03-13T06:25:10.792Z,100.00
2023-03-13T06:27:38.298Z,100.00
2023-03-13T06:32:54.078Z,100.00
2023-03-13T06:35:22.913Z,100.00
2023-03-13T06:37:50.347Z,100.00
2023-03-13T06:40:17.950Z,100.00
2023-03-13T06:42:45.385Z,100.00
2023-03-13T06:45:24.065Z,100.00
2023-03-13T06:47:52.146Z,100.00
2023-03-13T06:53:25.384Z,100.00
2023-03-13T06:55:52.940Z,100.00
2023-03-13T06:58:31.695Z,100.00
2023-03-13T07:00:59.917Z,100.00
2023-03-13T07:06:26.838Z,100.00
2023-03-13T07:08:55.648Z,100.00
2023-03-13T07:11:23.132Z,100.00
2023-03-13T07:13:50.597Z,100.00
2023-03-13T07:16:18.114Z,100.00
2023-03-13T07:18:45.676Z,100.00
2023-03-13T07:21:13.382Z,100.00
2023-03-13T07:23:41.474Z,100.00
2023-03-13T07:26:12.667Z,100.00
2023-03-13T07:31:33.692Z,100.00
2023-03-13T07:34:01.165Z,100.00
2023-03-13T07:36:29.698Z,100.00
2023-03-13T07:38:57.157Z,100.00
2023-03-13T07:41:25.923Z,100.00
2023-03-13T07:43:53.356Z,100.00
2023-03-13T07:46:21.558Z,100.00
2023-03-13T07:48:49.277Z,100.00
2023-03-13T07:51:17.896Z,100.00
2023-03-13T07:53:47.140Z,100.00
2023-03-13T07:59:14.290Z,100.00
2023-03-13T08:01:41.703Z,100.00
2023-03-13T08:04:11.452Z,100.00
2023-03-13T08:06:40.915Z,100.00
2023-03-13T08:09:08.665Z,100.00
2023-03-13T08:12:01.280Z,100.00
2023-03-13T08:14:30.064Z,100.00
2023-03-13T08:16:57.737Z,100.00
2023-03-13T08:19:25.192Z,100.00
2023-03-13T08:21:52.655Z,100.00
2023-03-13T08:24:20.255Z,100.00
2023-03-13T08:26:47.682Z,100.00
2023-03-13T08:29:15.906Z,100.00
2023-03-13T08:31:47.414Z,100.00
2023-03-13T08:37:16.228Z,100.00
2023-03-13T08:39:45.414Z,100.00
2023-03-13T08:42:14.173Z,100.00
2023-03-13T08:44:41.808Z,100.00
2023-03-13T08:47:10.711Z,100.00
2023-03-13T08:49:38.150Z,100.00
2023-03-13T08:52:06.953Z,100.00
2023-03-13T08:54:34.716Z,100.00
2023-03-13T08:57:02.242Z,98.88
2023-03-13T08:59:29.781Z,98.31
2023-03-13T09:01:57.252Z,97.98
2023-03-13T09:04:26.016Z,96.84
2023-03-13T09:06:53.461Z,96.97
2023-03-13T09:09:20.974Z,97.57
2023-03-13T09:11:48.393Z,96.88
2023-03-13T09:14:17.210Z,95.55
2023-03-13T09:16:46.275Z,96.10
2023-03-13T09:22:13.291Z,95.82
2023-03-13T09:24:45.869Z,94.36
2023-03-13T09:27:13.314Z,94.78
2023-03-13T09:29:42.385Z,94.59
2023-03-13T09:35:08.466Z,94.01
2023-03-13T09:37:38.430Z,95.85
2023-03-13T09:40:08.373Z,96.05
2023-03-13T09:42:45.273Z,97.04
2023-03-13T09:45:16.260Z,97.91
2023-03-13T09:50:46.368Z,98.07
2023-03-13T09:53:16.711Z,98.30
2023-03-13T09:55:45.857Z,98.54
2023-03-13T09:58:17.748Z,98.86
2023-03-13T10:03:40.145Z,97.54
2023-03-13T10:06:14.020Z,94.88
2023-03-13T10:08:43.322Z,93.85
2023-03-13T10:11:12.832Z,93.68
2023-03-13T10:13:43.542Z,92.17
2023-03-13T10:19:20.085Z,89.17
2023-03-13T10:21:49.936Z,87.95
2023-03-13T10:24:22.877Z,87.52
2023-03-13T10:26:50.413Z,86.84
2023-03-13T10:29:23.054Z,86.59
2023-03-13T10:31:57.772Z,85.92
2023-03-13T10:34:26.368Z,85.58
2023-03-13T10:39:43.328Z,87.66
2023-03-13T10:42:12.770Z,86.40
2023-03-13T10:44:40.170Z,86.20
2023-03-13T10:47:07.863Z,85.14
2023-03-13T10:52:36.987Z,85.07
2023-03-13T10:55:08.079Z,84.83
2023-03-13T10:57:36.249Z,81.96
2023-03-13T11:00:10.804Z,82.20
2023-03-13T11:02:40.146Z,80.88
2023-03-13T11:05:32.551Z,81.24
2023-03-13T11:08:00.620Z,82.27
2023-03-13T11:10:36.904Z,82.38
2023-03-13T11:16:09.178Z,85.10
2023-03-13T11:18:40.424Z,82.58
2023-03-13T11:21:17.755Z,82.28
2023-03-13T11:27:04.296Z,82.80
2023-03-13T11:29:38.337Z,82.95
2023-03-13T11:32:12.103Z,83.19
2023-03-13T11:34:43.190Z,83.28
2023-03-13T11:40:16.560Z,82.07
2023-03-13T11:42:54.553Z,82.13
2023-03-13T11:46:00.810Z,82.48
2023-03-13T11:51:34.433Z,80.40
2023-03-13T11:54:31.698Z,80.23
2023-03-13T11:57:01.002Z,78.58
2023-03-13T11:59:38.018Z,77.10
2023-03-13T12:02:15.287Z,77.57
2023-03-13T12:07:42.885Z,76.62
2023-03-13T12:10:13.685Z,74.41
2023-03-13T12:12:44.383Z,74.51
2023-03-13T12:15:24.974Z,77.02
2023-03-13T12:17:54.990Z,75.69
2023-03-13T12:20:25.217Z,72.87
2023-03-13T12:22:57.298Z,73.92
2023-03-13T12:25:26.222Z,73.38
2023-03-13T12:27:56.080Z,73.30
2023-03-13T12:30:29.960Z,71.74
2023-03-13T12:33:04.225Z,70.86
2023-03-13T12:35:33.481Z,70.83
2023-03-13T12:38:05.940Z,71.24
2023-03-13T12:40:36.214Z,71.18
2023-03-13T12:43:05.533Z,68.01
2023-03-13T12:45:38.225Z,69.29
2023-03-13T12:48:26.915Z,63.90
2023-03-13T12:51:04.156Z,63.83
2023-03-13T12:56:21.452Z,66.15
2023-03-13T13:01:53.644Z,64.28
2023-03-13T13:04:23.002Z,63.95
2023-03-13T13:06:57.852Z,63.64
2023-03-13T13:09:26.992Z,62.95
2023-03-13T13:11:58.981Z,60.67
2023-03-13T13:15:04.769Z,62.29
2023-03-13T13:20:31.319Z,64.68
2023-03-13T13:23:26.999Z,64.66
2023-03-13T13:25:55.554Z,65.57
2023-03-13T13:28:36.338Z,66.11
2023-03-13T13:31:42.160Z,66.78
2023-03-13T13:36:54.596Z,67.86
2023-03-13T13:39:33.517Z,66.64
2023-03-13T13:42:01.137Z,67.66
2023-03-13T13:44:30.343Z,66.58
2023-03-13T13:46:59.372Z,65.83
2023-03-13T13:49:32.819Z,66.06
2023-03-13T13:55:35.274Z,64.49
2023-03-13T13:58:05.067Z,63.72
2023-03-13T14:00:40.582Z,62.16
2023-03-13T14:03:19.352Z,64.06
2023-03-13T14:05:48.715Z,64.50
2023-03-13T14:08:21.947Z,64.04
2023-03-13T14:10:53.420Z,64.28
2023-03-13T14:13:22.480Z,64.26
2023-03-13T14:15:53.095Z,63.65
2023-03-13T14:21:25.118Z,64.41
2023-03-13T14:26:56.416Z,66.96
2023-03-13T14:29:26.389Z,67.43
2023-03-13T14:31:55.577Z,67.76
2023-03-13T14:37:36.731Z,69.60
2023-03-13T14:40:09.811Z,70.31
2023-03-13T14:42:44.565Z,69.26
2023-03-13T14:45:15.798Z,70.44
2023-03-13T14:47:43.564Z,69.19
2023-03-13T14:50:12.906Z,68.51
2023-03-13T14:52:46.059Z,66.02
2023-03-13T14:55:32.659Z,67.06
2023-03-13T14:58:03.535Z,66.90
2023-03-13T15:00:34.365Z,67.25
2023-03-13T15:03:21.577Z,66.43
2023-03-13T15:05:50.133Z,66.00
2023-03-13T15:08:19.121Z,65.94
2023-03-13T15:10:47.184Z,66.50
2023-03-13T15:13:17.768Z,65.07
2023-03-13T15:15:45.235Z,63.86
2023-03-13T15:18:19.818Z,63.98
2023-03-13T15:20:50.689Z,65.36
2023-03-13T15:26:21.015Z,64.94
2023-03-13T15:28:49.773Z,65.05
2023-03-13T15:31:17.514Z,66.29
2023-03-13T15:33:45.173Z,66.68
2023-03-13T15:36:12.877Z,65.98
2023-03-13T15:38:40.542Z,64.91
2023-03-13T15:41:09.148Z,64.64
2023-03-13T15:43:37.216Z,68.15
2023-03-13T15:48:47.174Z,67.20
2023-03-13T15:51:16.752Z,68.74
2023-03-13T15:53:46.007Z,68.46
2023-03-13T15:56:16.289Z,68.57
2023-03-13T15:58:44.252Z,69.56
2023-03-13T16:01:12.728Z,68.44
2023-03-13T16:03:40.293Z,69.33
2023-03-13T16:09:17.107Z,70.83
2023-03-13T16:11:45.696Z,70.81
2023-03-13T16:14:13.153Z,71.74
2023-03-13T16:16:40.736Z,71.23
2023-03-13T16:19:10.301Z,71.58
2023-03-13T16:22:05.987Z,70.99
2023-03-13T16:24:34.786Z,71.63
2023-03-13T16:30:01.872Z,72.94
2023-03-13T16:32:29.463Z,72.52
2023-03-13T16:34:56.884Z,71.97
2023-03-13T16:37:24.685Z,69.28
2023-03-13T16:39:53.437Z,70.59
2023-03-13T16:42:20.843Z,70.09
2023-03-13T16:44:48.340Z,70.94
2023-03-13T16:47:20.530Z,70.78
2023-03-13T16:49:48.059Z,70.58
2023-03-13T16:52:16.278Z,69.82
2023-03-13T16:54:43.893Z,70.13
2023-03-13T16:57:14.453Z,71.14
2023-03-13T16:59:41.899Z,73.12
2023-03-13T17:02:14.755Z,72.91
2023-03-13T17:07:31.034Z,76.39
2023-03-13T17:09:58.523Z,77.88
2023-03-13T17:12:27.356Z,79.14
2023-03-13T17:14:54.812Z,79.94
2023-03-13T17:17:23.389Z,79.79
2023-03-13T17:19:50.850Z,80.38
2023-03-13T17:22:18.689Z,80.46
2023-03-13T17:24:49.372Z,82.59
2023-03-13T17:27:17.990Z,83.55
2023-03-13T17:29:46.743Z,83.78
2023-03-13T17:32:15.333Z,84.46
2023-03-13T17:34:42.966Z,84.08
2023-03-13T17:37:15.640Z,83.78
2023-03-13T17:39:44.210Z,84.41
2023-03-13T17:42:11.639Z,83.35
2023-03-13T17:44:40.908Z,83.82
2023-03-13T17:47:13.505Z,84.07
2023-03-13T17:52:39.993Z,83.92
2023-03-13T17:55:09.186Z,83.51
2023-03-13T17:57:36.785Z,82.61
2023-03-13T18:02:48.870Z,80.49
2023-03-13T18:05:16.680Z,79.46
2023-03-13T18:07:44.683Z,78.60
2023-03-13T18:10:17.655Z,78.40
2023-03-13T18:12:45.094Z,77.06
2023-03-13T18:18:17.758Z,77.08
2023-03-13T18:20:45.275Z,76.35
2023-03-13T18:23:12.711Z,76.72
2023-03-13T18:28:38.992Z,76.71
2023-03-13T18:31:07.135Z,77.24
2023-03-13T18:33:35.908Z,76.73
2023-03-13T18:36:03.482Z,76.88
2023-03-13T18:41:20.579Z,78.12
2023-03-13T18:43:48.156Z,78.13
2023-03-13T18:46:20.203Z,79.00
2023-03-13T18:48:49.415Z,79.51
2023-03-13T18:51:17.393Z,80.57
2023-03-13T18:53:45.276Z,81.40
2023-03-13T18:56:20.647Z,82.03
2023-03-13T18:58:50.580Z,82.66
2023-03-13T19:04:19.104Z,85.21
2023-03-13T19:06:46.843Z,85.20
2023-03-13T19:09:41.122Z,87.24
2023-03-13T19:12:03.816Z,87.39
2023-03-13T19:14:31.262Z,87.38
2023-03-13T19:17:00.414Z,87.20
2023-03-13T19:19:31.819Z,87.52
2023-03-13T19:21:59.270Z,87.38
2023-03-13T19:24:27.456Z,88.65
2023-03-13T19:26:58.397Z,87.66
2023-03-13T19:32:15.151Z,88.54
2023-03-13T19:34:44.277Z,88.54
2023-03-13T19:37:12.027Z,88.84
2023-03-13T19:39:39.613Z,88.94
2023-03-13T19:42:08.080Z,88.65
2023-03-13T19:44:35.819Z,88.24
2023-03-13T19:47:03.395Z,88.09
2023-03-13T19:52:34.578Z,88.22
2023-03-13T19:55:05.204Z,88.53
2023-03-13T19:57:32.791Z,87.61
2023-03-13T20:00:00.254Z,87.73
2023-03-13T20:02:27.759Z,86.75
2023-03-13T20:04:55.222Z,87.33
2023-03-13T20:10:12.647Z,87.36
2023-03-13T20:12:40.210Z,87.53
2023-03-13T20:18:06.205Z,87.14
2023-03-13T20:20:33.671Z,87.26
2023-03-13T20:23:01.170Z,87.44
2023-03-13T20:25:30.016Z,87.15
2023-03-13T20:30:56.119Z,87.52
2023-03-13T20:33:23.599Z,86.74
2023-03-13T20:35:51.102Z,86.70
2023-03-13T20:38:18.591Z,87.13
2023-03-13T20:40:53.812Z,86.50
2023-03-13T20:46:33.192Z,86.20
2023-03-13T20:49:00.652Z,86.80
2023-03-13T20:51:28.814Z,87.03
2023-03-13T20:53:56.278Z,87.22
2023-03-13T20:56:25.243Z,87.27
2023-03-13T21:01:43.931Z,87.54
2023-03-13T21:07:14.008Z,87.69
2023-03-13T21:09:41.455Z,87.37
2023-03-13T21:12:10.555Z,87.71
2023-03-13T21:17:42.360Z,87.85
2023-03-13T21:20:12.275Z,89.18
2023-03-13T21:22:40.044Z,89.39
2023-03-13T21:25:08.488Z,89.03
2023-03-13T21:27:37.384Z,89.33
2023-03-13T21:30:06.206Z,89.39
2023-03-13T21:32:35.590Z,89.98
2023-03-13T21:35:03.810Z,89.37
2023-03-13T21:37:31.587Z,90.00
2023-03-13T21:43:03.910Z,90.42
2023-03-13T21:45:31.364Z,89.29
2023-03-13T21:47:58.791Z,89.08
2023-03-13T21:50:26.257Z,88.47
2023-03-13T21:52:53.732Z,88.39
2023-03-13T21:55:21.229Z,89.31
2023-03-13T22:00:45.465Z,89.76
2023-03-13T22:03:13.272Z,89.34
2023-03-13T22:05:42.203Z,88.91
2023-03-13T22:08:09.662Z,88.65
2023-03-13T22:13:40.086Z,87.72
2023-03-13T22:16:11.346Z,87.00
2023-03-13T22:18:39.026Z,87.44
2023-03-13T22:21:06.784Z,87.29
2023-03-13T22:26:23.033Z,87.13
2023-03-13T22:28:50.480Z,87.05
2023-03-13T22:31:19.419Z,86.96
2023-03-13T22:33:46.898Z,87.03
2023-03-13T22:36:14.391Z,87.04
2023-03-13T22:38:41.867Z,87.15
2023-03-13T22:41:12.006Z,86.76
2023-03-13T22:46:43.422Z,86.87
2023-03-13T22:49:10.850Z,86.60
2023-03-13T22:51:38.444Z,86.53
2023-03-13T22:54:05.932Z,86.74
2023-03-13T22:59:22.039Z,87.57
2023-03-13T23:01:50.834Z,87.82
2023-03-13T23:04:18.336Z,87.24
2023-03-13T23:06:45.760Z,87.71
2023-03-13T23:09:13.234Z,87.31
2023-03-13T23:11:40.686Z,87.03
2023-03-13T23:14:08.119Z,87.47
2023-03-13T23:16:36.578Z,87.77
2023-03-13T23:21:54.384Z,86.39
2023-03-13T23:24:21.942Z,87.07
2023-03-13T23:26:49.428Z,86.18
2023-03-13T23:29:17.061Z,86.52
2023-03-13T23:31:44.565Z,86.63
2023-03-13T23:37:12.362Z,85.85
2023-03-13T23:39:39.835Z,84.93
2023-03-13T23:42:08.265Z,85.54
2023-03-13T23:44:35.882Z,85.79
2023-03-13T23:49:44.066Z,87.72
2023-03-13T23:55:11.138Z,87.62
2023-03-13T23:57:38.767Z,87.64
